sensor_id;sensor_type;location;lat;lon;timestamp;P1;durP1;ratioP1;P2;durP2;ratioP2
50858;SDS011;36826;47.514;19.056;2023-05-16T00:01:05;1.83;;;1.20;;
50858;SDS011;36826;47.514;19.056;2023-05-16T00:03:32;3.95;;;1.45;;
50858;SDS011;36826;47.514;19.056;2023-05-16T00:05:58;5.68;;;1.50;;
50858;SDS011;36826;47.514;19.056;2023-05-16T00:08:26;4.03;;;1.30;;
50858;SDS011;36826;47.514;19.056;2023-05-16T00:10:52;1.70;;;1.20;;
50858;SDS011;36826;47.514;19.056;2023-05-16T00:13:18;4.15;;;1.02;;
50858;SDS011;36826;47.514;19.056;2023-05-16T00:15:49;3.22;;;1.10;;
50858;SDS011;36826;47.514;19.056;2023-05-16T00:18:18;3.42;;;1.05;;
50858;SDS011;36826;47.514;19.056;2023-05-16T00:20:46;3.97;;;1.27;;
50858;SDS011;36826;47.514;19.056;2023-05-16T00:23:13;2.13;;;1.30;;
50858;SDS011;36826;47.514;19.056;2023-05-16T00:25:39;2.35;;;1.48;;
50858;SDS011;36826;47.514;19.056;2023-05-16T00:28:05;2.42;;;1.05;;
50858;SDS011;36826;47.514;19.056;2023-05-16T00:30:31;2.53;;;1.10;;
50858;SDS011;36826;47.514;19.056;2023-05-16T00:32:56;4.30;;;0.90;;
50858;SDS011;36826;47.514;19.056;2023-05-16T00:35:24;2.13;;;1.02;;
50858;SDS011;36826;47.514;19.056;2023-05-16T00:37:50;1.27;;;0.65;;
50858;SDS011;36826;47.514;19.056;2023-05-16T00:40:16;1.75;;;0.80;;
50858;SDS011;36826;47.514;19.056;2023-05-16T00:42:41;2.55;;;0.98;;
50858;SDS011;36826;47.514;19.056;2023-05-16T00:45:09;1.60;;;0.70;;
50858;SDS011;36826;47.514;19.056;2023-05-16T00:47:38;3.40;;;0.90;;
50858;SDS011;36826;47.514;19.056;2023-05-16T00:50:03;2.95;;;0.80;;
50858;SDS011;36826;47.514;19.056;2023-05-16T00:52:30;1.65;;;0.70;;
50858;SDS011;36826;47.514;19.056;2023-05-16T00:54:57;1.75;;;0.70;;
50858;SDS011;36826;47.514;19.056;2023-05-16T00:57:23;1.75;;;0.77;;
50858;SDS011;36826;47.514;19.056;2023-05-16T00:59:49;1.92;;;0.60;;
50858;SDS011;36826;47.514;19.056;2023-05-16T01:02:18;2.20;;;0.98;;
50858;SDS011;36826;47.514;19.056;2023-05-16T01:04:44;2.17;;;0.70;;
50858;SDS011;36826;47.514;19.056;2023-05-16T01:07:12;2.72;;;1.00;;
50858;SDS011;36826;47.514;19.056;2023-05-16T01:09:38;2.95;;;0.90;;
50858;SDS011;36826;47.514;19.056;2023-05-16T01:12:10;1.60;;;0.95;;
50858;SDS011;36826;47.514;19.056;2023-05-16T01:15:19;4.50;;;1.20;;
50858;SDS011;36826;47.514;19.056;2023-05-16T01:18:02;2.35;;;1.10;;
50858;SDS011;36826;47.514;19.056;2023-05-16T01:20:45;3.58;;;1.20;;
50858;SDS011;36826;47.514;19.056;2023-05-16T01:23:42;3.42;;;1.08;;
50858;SDS011;36826;47.514;19.056;2023-05-16T01:26:15;3.72;;;1.17;;
50858;SDS011;36826;47.514;19.056;2023-05-16T01:28:47;2.53;;;1.10;;
50858;SDS011;36826;47.514;19.056;2023-05-16T01:31:14;2.38;;;1.20;;
50858;SDS011;36826;47.514;19.056;2023-05-16T01:33:40;2.00;;;1.40;;
50858;SDS011;36826;47.514;19.056;2023-05-16T01:38:43;1.75;;;1.00;;
50858;SDS011;36826;47.514;19.056;2023-05-16T01:41:24;1.75;;;0.82;;
50858;SDS011;36826;47.514;19.056;2023-05-16T01:43:58;2.13;;;1.20;;
50858;SDS011;36826;47.514;19.056;2023-05-16T01:46:32;4.68;;;1.70;;
50858;SDS011;36826;47.514;19.056;2023-05-16T01:51:41;4.38;;;1.33;;
50858;SDS011;36826;47.514;19.056;2023-05-16T01:54:17;3.70;;;1.35;;
50858;SDS011;36826;47.514;19.056;2023-05-16T01:56:51;2.45;;;1.42;;
50858;SDS011;36826;47.514;19.056;2023-05-16T01:59:19;2.22;;;1.63;;
50858;SDS011;36826;47.514;19.056;2023-05-16T02:01:46;3.38;;;1.25;;
50858;SDS011;36826;47.514;19.056;2023-05-16T02:04:12;2.33;;;1.40;;
50858;SDS011;36826;47.514;19.056;2023-05-16T02:06:41;2.50;;;1.30;;
50858;SDS011;36826;47.514;19.056;2023-05-16T02:09:06;4.75;;;1.75;;
50858;SDS011;36826;47.514;19.056;2023-05-16T02:11:32;2.33;;;1.58;;
50858;SDS011;36826;47.514;19.056;2023-05-16T02:14:01;2.60;;;1.50;;
50858;SDS011;36826;47.514;19.056;2023-05-16T02:16:28;3.85;;;1.20;;
50858;SDS011;36826;47.514;19.056;2023-05-16T02:18:55;2.53;;;1.42;;
50858;SDS011;36826;47.514;19.056;2023-05-16T02:21:21;2.85;;;1.55;;
50858;SDS011;36826;47.514;19.056;2023-05-16T02:23:46;1.42;;;1.30;;
50858;SDS011;36826;47.514;19.056;2023-05-16T02:26:12;2.85;;;1.20;;
50858;SDS011;36826;47.514;19.056;2023-05-16T02:28:38;1.45;;;1.23;;
50858;SDS011;36826;47.514;19.056;2023-05-16T02:31:03;1.50;;;1.17;;
50858;SDS011;36826;47.514;19.056;2023-05-16T02:33:29;3.95;;;1.27;;
50858;SDS011;36826;47.514;19.056;2023-05-16T02:35:55;3.78;;;1.30;;
50858;SDS011;36826;47.514;19.056;2023-05-16T02:38:20;3.35;;;1.40;;
50858;SDS011;36826;47.514;19.056;2023-05-16T02:40:46;1.70;;;1.30;;
50858;SDS011;36826;47.514;19.056;2023-05-16T02:43:13;3.55;;;1.30;;
50858;SDS011;36826;47.514;19.056;2023-05-16T02:45:40;1.30;;;1.20;;
50858;SDS011;36826;47.514;19.056;2023-05-16T02:48:06;4.15;;;1.40;;
50858;SDS011;36826;47.514;19.056;2023-05-16T02:50:36;2.55;;;1.33;;
50858;SDS011;36826;47.514;19.056;2023-05-16T02:53:01;1.80;;;1.50;;
50858;SDS011;36826;47.514;19.056;2023-05-16T02:55:27;4.03;;;1.50;;
50858;SDS011;36826;47.514;19.056;2023-05-16T02:57:53;3.08;;;1.30;;
50858;SDS011;36826;47.514;19.056;2023-05-16T03:00:19;3.78;;;1.50;;
50858;SDS011;36826;47.514;19.056;2023-05-16T03:02:45;3.13;;;1.70;;
50858;SDS011;36826;47.514;19.056;2023-05-16T03:05:11;1.80;;;1.50;;
50858;SDS011;36826;47.514;19.056;2023-05-16T03:07:37;3.45;;;1.40;;
50858;SDS011;36826;47.514;19.056;2023-05-16T03:10:03;3.67;;;1.95;;
50858;SDS011;36826;47.514;19.056;2023-05-16T03:12:29;3.08;;;1.27;;
50858;SDS011;36826;47.514;19.056;2023-05-16T03:14:55;2.08;;;1.70;;
50858;SDS011;36826;47.514;19.056;2023-05-16T03:17:23;2.17;;;1.50;;
50858;SDS011;36826;47.514;19.056;2023-05-16T03:19:49;4.25;;;1.70;;
50858;SDS011;36826;47.514;19.056;2023-05-16T03:22:16;2.10;;;1.60;;
50858;SDS011;36826;47.514;19.056;2023-05-16T03:24:41;2.85;;;1.40;;
50858;SDS011;36826;47.514;19.056;2023-05-16T03:27:07;1.77;;;1.13;;
50858;SDS011;36826;47.514;19.056;2023-05-16T03:29:33;2.78;;;1.30;;
50858;SDS011;36826;47.514;19.056;2023-05-16T03:31:59;3.75;;;1.50;;
50858;SDS011;36826;47.514;19.056;2023-05-16T03:34:24;3.83;;;1.30;;
50858;SDS011;36826;47.514;19.056;2023-05-16T03:36:55;2.67;;;1.50;;
50858;SDS011;36826;47.514;19.056;2023-05-16T03:39:21;3.08;;;1.30;;
50858;SDS011;36826;47.514;19.056;2023-05-16T03:41:47;4.57;;;1.50;;
50858;SDS011;36826;47.514;19.056;2023-05-16T03:44:16;2.05;;;1.20;;
50858;SDS011;36826;47.514;19.056;2023-05-16T03:46:43;4.32;;;1.48;;
50858;SDS011;36826;47.514;19.056;2023-05-16T03:49:09;1.45;;;1.23;;
50858;SDS011;36826;47.514;19.056;2023-05-16T03:51:35;2.03;;;1.52;;
50858;SDS011;36826;47.514;19.056;2023-05-16T03:54:04;2.70;;;1.60;;
50858;SDS011;36826;47.514;19.056;2023-05-16T03:56:30;1.92;;;1.50;;
50858;SDS011;36826;47.514;19.056;2023-05-16T03:58:55;2.63;;;1.70;;
50858;SDS011;36826;47.514;19.056;2023-05-16T04:01:21;1.83;;;1.50;;
50858;SDS011;36826;47.514;19.056;2023-05-16T04:03:49;2.95;;;1.17;;
50858;SDS011;36826;47.514;19.056;2023-05-16T04:06:15;2.75;;;1.38;;
50858;SDS011;36826;47.514;19.056;2023-05-16T04:08:41;3.05;;;1.67;;
50858;SDS011;36826;47.514;19.056;2023-05-16T04:11:09;1.85;;;1.23;;
50858;SDS011;36826;47.514;19.056;2023-05-16T04:13:36;1.50;;;1.38;;
50858;SDS011;36826;47.514;19.056;2023-05-16T04:16:05;2.95;;;1.40;;
50858;SDS011;36826;47.514;19.056;2023-05-16T04:18:40;4.32;;;1.80;;
50858;SDS011;36826;47.514;19.056;2023-05-16T04:21:06;1.52;;;1.33;;
50858;SDS011;36826;47.514;19.056;2023-05-16T04:23:34;3.60;;;1.77;;
50858;SDS011;36826;47.514;19.056;2023-05-16T04:26:00;3.15;;;1.60;;
50858;SDS011;36826;47.514;19.056;2023-05-16T04:28:28;2.92;;;1.17;;
50858;SDS011;36826;47.514;19.056;2023-05-16T04:30:57;1.58;;;1.23;;
50858;SDS011;36826;47.514;19.056;2023-05-16T04:33:25;2.03;;;1.10;;
50858;SDS011;36826;47.514;19.056;2023-05-16T04:35:56;2.40;;;1.33;;
50858;SDS011;36826;47.514;19.056;2023-05-16T04:38:24;4.38;;;1.48;;
50858;SDS011;36826;47.514;19.056;2023-05-16T04:40:53;2.05;;;1.40;;
50858;SDS011;36826;47.514;19.056;2023-05-16T04:43:26;1.55;;;1.20;;
50858;SDS011;36826;47.514;19.056;2023-05-16T04:45:55;3.25;;;1.10;;
50858;SDS011;36826;47.514;19.056;2023-05-16T04:48:34;2.80;;;1.30;;
50858;SDS011;36826;47.514;19.056;2023-05-16T04:51:00;3.33;;;1.15;;
50858;SDS011;36826;47.514;19.056;2023-05-16T04:53:51;1.92;;;1.10;;
50858;SDS011;36826;47.514;19.056;2023-05-16T04:56:16;1.40;;;0.93;;
50858;SDS011;36826;47.514;19.056;2023-05-16T04:58:43;1.92;;;1.20;;
50858;SDS011;36826;47.514;19.056;2023-05-16T05:01:08;4.30;;;1.20;;
50858;SDS011;36826;47.514;19.056;2023-05-16T05:03:34;3.03;;;1.17;;
50858;SDS011;36826;47.514;19.056;2023-05-16T05:06:02;4.97;;;1.80;;
50858;SDS011;36826;47.514;19.056;2023-05-16T05:08:28;1.95;;;1.30;;
50858;SDS011;36826;47.514;19.056;2023-05-16T05:10:57;4.13;;;1.27;;
50858;SDS011;36826;47.514;19.056;2023-05-16T05:13:27;4.22;;;1.20;;
50858;SDS011;36826;47.514;19.056;2023-05-16T05:15:55;2.10;;;1.45;;
50858;SDS011;36826;47.514;19.056;2023-05-16T05:18:21;1.70;;;1.20;;
50858;SDS011;36826;47.514;19.056;2023-05-16T05:20:48;2.35;;;0.98;;
50858;SDS011;36826;47.514;19.056;2023-05-16T05:23:14;3.10;;;0.97;;
50858;SDS011;36826;47.514;19.056;2023-05-16T05:25:57;2.08;;;1.10;;
50858;SDS011;36826;47.514;19.056;2023-05-16T05:28:23;2.40;;;1.10;;
50858;SDS011;36826;47.514;19.056;2023-05-16T05:30:48;1.73;;;1.33;;
50858;SDS011;36826;47.514;19.056;2023-05-16T05:33:17;1.70;;;1.20;;
50858;SDS011;36826;47.514;19.056;2023-05-16T05:35:43;2.58;;;1.17;;
50858;SDS011;36826;47.514;19.056;2023-05-16T05:38:08;3.05;;;1.50;;
50858;SDS011;36826;47.514;19.056;2023-05-16T05:40:35;2.10;;;1.25;;
50858;SDS011;36826;47.514;19.056;2023-05-16T05:43:03;2.20;;;1.20;;
50858;SDS011;36826;47.514;19.056;2023-05-16T05:45:29;3.72;;;1.52;;
50858;SDS011;36826;47.514;19.056;2023-05-16T05:47:54;3.13;;;1.50;;
50858;SDS011;36826;47.514;19.056;2023-05-16T05:50:20;5.57;;;1.70;;
50858;SDS011;36826;47.514;19.056;2023-05-16T05:52:46;3.15;;;1.30;;
50858;SDS011;36826;47.514;19.056;2023-05-16T05:55:11;3.55;;;1.30;;
50858;SDS011;36826;47.514;19.056;2023-05-16T05:57:37;3.08;;;1.35;;
50858;SDS011;36826;47.514;19.056;2023-05-16T06:00:02;1.90;;;1.40;;
50858;SDS011;36826;47.514;19.056;2023-05-16T06:02:29;1.75;;;1.17;;
50858;SDS011;36826;47.514;19.056;2023-05-16T06:04:55;3.08;;;1.60;;
50858;SDS011;36826;47.514;19.056;2023-05-16T06:07:20;1.95;;;1.08;;
50858;SDS011;36826;47.514;19.056;2023-05-16T06:09:46;1.85;;;1.00;;
50858;SDS011;36826;47.514;19.056;2023-05-16T06:12:11;3.75;;;1.35;;
50858;SDS011;36826;47.514;19.056;2023-05-16T06:14:37;2.80;;;1.27;;
50858;SDS011;36826;47.514;19.056;2023-05-16T06:17:02;4.10;;;1.40;;
50858;SDS011;36826;47.514;19.056;2023-05-16T06:19:28;3.13;;;1.55;;
50858;SDS011;36826;47.514;19.056;2023-05-16T06:21:53;3.35;;;1.60;;
50858;SDS011;36826;47.514;19.056;2023-05-16T06:24:19;2.72;;;1.30;;
50858;SDS011;36826;47.514;19.056;2023-05-16T06:26:44;2.95;;;1.15;;
50858;SDS011;36826;47.514;19.056;2023-05-16T06:29:13;2.47;;;1.40;;
50858;SDS011;36826;47.514;19.056;2023-05-16T06:31:39;3.25;;;1.35;;
50858;SDS011;36826;47.514;19.056;2023-05-16T06:34:04;7.70;;;2.55;;
50858;SDS011;36826;47.514;19.056;2023-05-16T06:36:30;3.83;;;1.77;;
50858;SDS011;36826;47.514;19.056;2023-05-16T06:38:56;2.33;;;1.33;;
50858;SDS011;36826;47.514;19.056;2023-05-16T06:41:21;7.30;;;2.28;;
50858;SDS011;36826;47.514;19.056;2023-05-16T06:43:47;5.40;;;1.67;;
50858;SDS011;36826;47.514;19.056;2023-05-16T06:46:13;4.43;;;1.60;;
50858;SDS011;36826;47.514;19.056;2023-05-16T06:48:39;4.32;;;1.58;;
50858;SDS011;36826;47.514;19.056;2023-05-16T06:51:05;5.38;;;1.85;;
50858;SDS011;36826;47.514;19.056;2023-05-16T06:53:30;5.90;;;1.80;;
50858;SDS011;36826;47.514;19.056;2023-05-16T06:55:56;3.25;;;1.55;;
50858;SDS011;36826;47.514;19.056;2023-05-16T06:58:21;3.83;;;1.27;;
50858;SDS011;36826;47.514;19.056;2023-05-16T07:00:48;6.68;;;1.83;;
50858;SDS011;36826;47.514;19.056;2023-05-16T07:03:14;4.03;;;1.77;;
50858;SDS011;36826;47.514;19.056;2023-05-16T07:05:39;1.85;;;1.30;;
50858;SDS011;36826;47.514;19.056;2023-05-16T07:08:07;3.72;;;1.73;;
50858;SDS011;36826;47.514;19.056;2023-05-16T07:10:33;3.45;;;1.70;;
50858;SDS011;36826;47.514;19.056;2023-05-16T07:12:59;3.58;;;1.77;;
50858;SDS011;36826;47.514;19.056;2023-05-16T07:15:25;4.20;;;2.00;;
50858;SDS011;36826;47.514;19.056;2023-05-16T07:17:51;3.50;;;1.98;;
50858;SDS011;36826;47.514;19.056;2023-05-16T07:20:16;6.97;;;1.98;;
50858;SDS011;36826;47.514;19.056;2023-05-16T07:22:42;3.95;;;2.08;;
50858;SDS011;36826;47.514;19.056;2023-05-16T07:25:07;5.38;;;2.10;;
50858;SDS011;36826;47.514;19.056;2023-05-16T07:27:37;3.97;;;2.25;;
50858;SDS011;36826;47.514;19.056;2023-05-16T07:30:06;6.20;;;2.80;;
50858;SDS011;36826;47.514;19.056;2023-05-16T07:32:33;3.90;;;3.13;;
50858;SDS011;36826;47.514;19.056;2023-05-16T07:34:59;4.57;;;2.85;;
50858;SDS011;36826;47.514;19.056;2023-05-16T07:37:24;7.03;;;3.47;;
50858;SDS011;36826;47.514;19.056;2023-05-16T07:39:50;3.70;;;3.08;;
50858;SDS011;36826;47.514;19.056;2023-05-16T07:42:15;6.32;;;3.67;;
50858;SDS011;36826;47.514;19.056;2023-05-16T07:44:41;5.28;;;3.72;;
50858;SDS011;36826;47.514;19.056;2023-05-16T07:47:06;6.70;;;3.67;;
50858;SDS011;36826;47.514;19.056;2023-05-16T07:49:32;4.15;;;3.47;;
50858;SDS011;36826;47.514;19.056;2023-05-16T07:51:57;5.82;;;3.70;;
50858;SDS011;36826;47.514;19.056;2023-05-16T07:54:23;7.22;;;4.00;;
50858;SDS011;36826;47.514;19.056;2023-05-16T07:56:49;6.57;;;3.97;;
50858;SDS011;36826;47.514;19.056;2023-05-16T07:59:15;5.68;;;3.60;;
50858;SDS011;36826;47.514;19.056;2023-05-16T08:01:40;5.20;;;3.45;;
50858;SDS011;36826;47.514;19.056;2023-05-16T08:04:06;6.55;;;3.60;;
50858;SDS011;36826;47.514;19.056;2023-05-16T08:06:32;5.40;;;4.07;;
50858;SDS011;36826;47.514;19.056;2023-05-16T08:08:58;7.72;;;3.33;;
50858;SDS011;36826;47.514;19.056;2023-05-16T08:11:24;4.53;;;3.33;;
50858;SDS011;36826;47.514;19.056;2023-05-16T08:13:50;6.28;;;3.80;;
50858;SDS011;36826;47.514;19.056;2023-05-16T08:16:16;3.58;;;3.13;;
50858;SDS011;36826;47.514;19.056;2023-05-16T08:18:42;5.28;;;3.50;;
50858;SDS011;36826;47.514;19.056;2023-05-16T08:21:07;6.15;;;3.50;;
50858;SDS011;36826;47.514;19.056;2023-05-16T08:23:33;5.47;;;3.30;;
50858;SDS011;36826;47.514;19.056;2023-05-16T08:26:00;3.78;;;3.33;;
50858;SDS011;36826;47.514;19.056;2023-05-16T08:28:27;5.00;;;3.10;;
50858;SDS011;36826;47.514;19.056;2023-05-16T08:30:53;4.82;;;3.22;;
50858;SDS011;36826;47.514;19.056;2023-05-16T08:33:18;5.45;;;3.53;;
50858;SDS011;36826;47.514;19.056;2023-05-16T08:35:44;3.97;;;3.50;;
50858;SDS011;36826;47.514;19.056;2023-05-16T08:38:10;5.93;;;3.70;;
50858;SDS011;36826;47.514;19.056;2023-05-16T08:40:36;4.80;;;3.30;;
50858;SDS011;36826;47.514;19.056;2023-05-16T08:43:02;5.40;;;4.10;;
50858;SDS011;36826;47.514;19.056;2023-05-16T08:45:28;5.40;;;4.28;;
50858;SDS011;36826;47.514;19.056;2023-05-16T08:47:55;5.35;;;4.45;;
50858;SDS011;36826;47.514;19.056;2023-05-16T08:50:23;5.65;;;4.70;;
50858;SDS011;36826;47.514;19.056;2023-05-16T08:52:50;5.90;;;4.70;;
50858;SDS011;36826;47.514;19.056;2023-05-16T08:55:18;7.05;;;4.70;;
50858;SDS011;36826;47.514;19.056;2023-05-16T08:57:44;5.28;;;4.45;;
50858;SDS011;36826;47.514;19.056;2023-05-16T09:00:11;5.97;;;4.63;;
50858;SDS011;36826;47.514;19.056;2023-05-16T09:02:38;7.32;;;4.55;;
50858;SDS011;36826;47.514;19.056;2023-05-16T09:05:10;7.90;;;4.70;;
50858;SDS011;36826;47.514;19.056;2023-05-16T09:07:37;6.50;;;5.07;;
50858;SDS011;36826;47.514;19.056;2023-05-16T09:10:03;8.00;;;5.75;;
50858;SDS011;36826;47.514;19.056;2023-05-16T09:12:31;7.18;;;5.10;;
50858;SDS011;36826;47.514;19.056;2023-05-16T09:14:57;6.97;;;4.93;;
50858;SDS011;36826;47.514;19.056;2023-05-16T09:17:22;5.57;;;4.57;;
50858;SDS011;36826;47.514;19.056;2023-05-16T09:19:48;6.45;;;4.82;;
50858;SDS011;36826;47.514;19.056;2023-05-16T09:22:17;6.60;;;5.32;;
50858;SDS011;36826;47.514;19.056;2023-05-16T09:24:43;7.25;;;5.40;;
50858;SDS011;36826;47.514;19.056;2023-05-16T09:27:10;7.65;;;5.47;;
50858;SDS011;36826;47.514;19.056;2023-05-16T09:29:40;6.97;;;5.63;;
50858;SDS011;36826;47.514;19.056;2023-05-16T09:32:10;6.45;;;5.80;;
50858;SDS011;36826;47.514;19.056;2023-05-16T09:34:42;8.80;;;6.35;;
50858;SDS011;36826;47.514;19.056;2023-05-16T09:37:09;7.68;;;5.97;;
50858;SDS011;36826;47.514;19.056;2023-05-16T09:39:36;6.88;;;6.00;;
50858;SDS011;36826;47.514;19.056;2023-05-16T09:42:03;8.67;;;6.60;;
50858;SDS011;36826;47.514;19.056;2023-05-16T09:44:30;8.00;;;6.15;;
50858;SDS011;36826;47.514;19.056;2023-05-16T09:46:56;7.85;;;6.38;;
50858;SDS011;36826;47.514;19.056;2023-05-16T09:49:23;8.05;;;6.63;;
50858;SDS011;36826;47.514;19.056;2023-05-16T09:51:49;9.27;;;6.78;;
50858;SDS011;36826;47.514;19.056;2023-05-16T09:54:15;8.30;;;6.75;;
50858;SDS011;36826;47.514;19.056;2023-05-16T09:56:49;11.68;;;6.88;;
50858;SDS011;36826;47.514;19.056;2023-05-16T09:59:15;11.00;;;6.80;;
50858;SDS011;36826;47.514;19.056;2023-05-16T10:01:41;13.52;;;7.70;;
50858;SDS011;36826;47.514;19.056;2023-05-16T10:04:07;10.43;;;7.63;;
50858;SDS011;36826;47.514;19.056;2023-05-16T10:06:37;8.25;;;6.68;;
50858;SDS011;36826;47.514;19.056;2023-05-16T10:09:06;8.40;;;7.40;;
50858;SDS011;36826;47.514;19.056;2023-05-16T10:11:35;8.95;;;7.22;;
50858;SDS011;36826;47.514;19.056;2023-05-16T10:14:01;9.95;;;7.70;;
50858;SDS011;36826;47.514;19.056;2023-05-16T10:16:29;9.73;;;8.48;;
50858;SDS011;36826;47.514;19.056;2023-05-16T10:18:58;11.80;;;8.32;;
50858;SDS011;36826;47.514;19.056;2023-05-16T10:21:25;14.47;;;8.80;;
50858;SDS011;36826;47.514;19.056;2023-05-16T10:23:54;10.52;;;8.52;;
50858;SDS011;36826;47.514;19.056;2023-05-16T10:26:22;12.60;;;9.30;;
50858;SDS011;36826;47.514;19.056;2023-05-16T10:28:50;10.88;;;8.85;;
50858;SDS011;36826;47.514;19.056;2023-05-16T10:31:21;12.32;;;8.82;;
50858;SDS011;36826;47.514;19.056;2023-05-16T10:33:48;11.48;;;8.93;;
50858;SDS011;36826;47.514;19.056;2023-05-16T10:36:14;12.55;;;9.43;;
50858;SDS011;36826;47.514;19.056;2023-05-16T10:38:41;12.70;;;9.27;;
50858;SDS011;36826;47.514;19.056;2023-05-16T10:41:07;12.25;;;9.23;;
50858;SDS011;36826;47.514;19.056;2023-05-16T10:43:36;11.30;;;8.57;;
50858;SDS011;36826;47.514;19.056;2023-05-16T10:46:02;10.75;;;8.75;;
50858;SDS011;36826;47.514;19.056;2023-05-16T10:48:30;10.63;;;8.32;;
50858;SDS011;36826;47.514;19.056;2023-05-16T10:50:57;8.50;;;7.07;;
50858;SDS011;36826;47.514;19.056;2023-05-16T10:53:32;10.45;;;8.70;;
50858;SDS011;36826;47.514;19.056;2023-05-16T11:06:29;13.60;;;9.60;;
50858;SDS011;36826;47.514;19.056;2023-05-16T11:09:06;10.65;;;9.55;;
50858;SDS011;36826;47.514;19.056;2023-05-16T11:14:26;10.13;;;9.10;;
50858;SDS011;36826;47.514;19.056;2023-05-16T11:22:38;9.85;;;6.78;;
50858;SDS011;36826;47.514;19.056;2023-05-16T11:25:11;10.13;;;8.73;;
50858;SDS011;36826;47.514;19.056;2023-05-16T11:27:45;9.35;;;7.80;;
50858;SDS011;36826;47.514;19.056;2023-05-16T11:30:16;10.23;;;9.15;;
50858;SDS011;36826;47.514;19.056;2023-05-16T11:32:44;9.93;;;8.75;;
50858;SDS011;36826;47.514;19.056;2023-05-16T11:35:12;9.68;;;8.15;;
50858;SDS011;36826;47.514;19.056;2023-05-16T11:37:41;9.50;;;8.60;;
50858;SDS011;36826;47.514;19.056;2023-05-16T11:40:09;9.20;;;8.02;;
50858;SDS011;36826;47.514;19.056;2023-05-16T11:42:40;8.15;;;6.68;;
50858;SDS011;36826;47.514;19.056;2023-05-16T11:45:09;9.50;;;8.23;;
50858;SDS011;36826;47.514;19.056;2023-05-16T11:47:49;9.02;;;7.55;;
50858;SDS011;36826;47.514;19.056;2023-05-16T11:50:21;7.35;;;6.65;;
50858;SDS011;36826;47.514;19.056;2023-05-16T11:52:53;8.23;;;7.32;;
50858;SDS011;36826;47.514;19.056;2023-05-16T11:55:22;8.43;;;7.55;;
50858;SDS011;36826;47.514;19.056;2023-05-16T11:57:52;8.35;;;7.28;;
50858;SDS011;36826;47.514;19.056;2023-05-16T12:00:18;8.45;;;7.65;;
50858;SDS011;36826;47.514;19.056;2023-05-16T12:02:46;8.18;;;7.38;;
50858;SDS011;36826;47.514;19.056;2023-05-16T12:05:14;8.55;;;7.07;;
50858;SDS011;36826;47.514;19.056;2023-05-16T12:07:42;8.75;;;6.65;;
50858;SDS011;36826;47.514;19.056;2023-05-16T12:10:09;7.35;;;5.40;;
50858;SDS011;36826;47.514;19.056;2023-05-16T12:12:39;7.43;;;6.18;;
50858;SDS011;36826;47.514;19.056;2023-05-16T12:17:33;7.13;;;5.40;;
50858;SDS011;36826;47.514;19.056;2023-05-16T12:20:00;8.88;;;6.20;;
50858;SDS011;36826;47.514;19.056;2023-05-16T12:22:30;6.50;;;4.68;;
50858;SDS011;36826;47.514;19.056;2023-05-16T12:24:57;6.10;;;4.38;;
50858;SDS011;36826;47.514;19.056;2023-05-16T12:27:24;5.40;;;3.88;;
50858;SDS011;36826;47.514;19.056;2023-05-16T12:29:50;5.65;;;3.90;;
50858;SDS011;36826;47.514;19.056;2023-05-16T12:32:19;6.78;;;4.20;;
50858;SDS011;36826;47.514;19.056;2023-05-16T12:34:51;6.32;;;4.05;;
50858;SDS011;36826;47.514;19.056;2023-05-16T12:37:18;6.65;;;3.75;;
50858;SDS011;36826;47.514;19.056;2023-05-16T12:39:45;6.20;;;3.92;;
50858;SDS011;36826;47.514;19.056;2023-05-16T12:42:12;6.78;;;4.25;;
50858;SDS011;36826;47.514;19.056;2023-05-16T12:44:38;6.45;;;3.83;;
50858;SDS011;36826;47.514;19.056;2023-05-16T12:47:10;5.22;;;3.92;;
50858;SDS011;36826;47.514;19.056;2023-05-16T12:49:36;6.63;;;3.47;;
50858;SDS011;36826;47.514;19.056;2023-05-16T12:52:08;6.85;;;4.28;;
50858;SDS011;36826;47.514;19.056;2023-05-16T12:54:41;7.65;;;3.97;;
50858;SDS011;36826;47.514;19.056;2023-05-16T12:57:07;8.30;;;4.22;;
50858;SDS011;36826;47.514;19.056;2023-05-16T12:59:34;7.07;;;4.53;;
50858;SDS011;36826;47.514;19.056;2023-05-16T13:01:59;8.65;;;4.50;;
50858;SDS011;36826;47.514;19.056;2023-05-16T13:04:25;7.07;;;4.93;;
50858;SDS011;36826;47.514;19.056;2023-05-16T13:06:50;8.13;;;4.80;;
50858;SDS011;36826;47.514;19.056;2023-05-16T13:09:19;9.07;;;5.47;;
50858;SDS011;36826;47.514;19.056;2023-05-16T13:11:45;9.10;;;4.85;;
50858;SDS011;36826;47.514;19.056;2023-05-16T13:14:10;11.63;;;5.65;;
50858;SDS011;36826;47.514;19.056;2023-05-16T13:16:36;11.38;;;5.10;;
50858;SDS011;36826;47.514;19.056;2023-05-16T13:19:02;8.38;;;5.38;;
50858;SDS011;36826;47.514;19.056;2023-05-16T13:21:29;7.32;;;5.82;;
50858;SDS011;36826;47.514;19.056;2023-05-16T13:23:55;7.90;;;5.75;;
50858;SDS011;36826;47.514;19.056;2023-05-16T13:26:21;10.23;;;5.70;;
50858;SDS011;36826;47.514;19.056;2023-05-16T13:28:47;7.13;;;5.20;;
50858;SDS011;36826;47.514;19.056;2023-05-16T13:31:17;7.65;;;5.50;;
50858;SDS011;36826;47.514;19.056;2023-05-16T13:33:42;9.05;;;4.82;;
50858;SDS011;36826;47.514;19.056;2023-05-16T13:36:08;7.55;;;5.43;;
50858;SDS011;36826;47.514;19.056;2023-05-16T13:38:34;8.70;;;4.88;;
50858;SDS011;36826;47.514;19.056;2023-05-16T13:41:00;7.28;;;5.00;;
50858;SDS011;36826;47.514;19.056;2023-05-16T13:43:25;8.23;;;4.82;;
50858;SDS011;36826;47.514;19.056;2023-05-16T13:45:51;9.10;;;5.07;;
50858;SDS011;36826;47.514;19.056;2023-05-16T13:48:16;8.85;;;4.90;;
50858;SDS011;36826;47.514;19.056;2023-05-16T13:50:42;6.28;;;4.57;;
50858;SDS011;36826;47.514;19.056;2023-05-16T13:53:08;8.93;;;5.03;;
50858;SDS011;36826;47.514;19.056;2023-05-16T13:55:33;8.73;;;4.70;;
50858;SDS011;36826;47.514;19.056;2023-05-16T13:57:59;10.60;;;4.93;;
50858;SDS011;36826;47.514;19.056;2023-05-16T14:00:24;7.20;;;4.57;;
50858;SDS011;36826;47.514;19.056;2023-05-16T14:02:50;8.43;;;4.55;;
50858;SDS011;36826;47.514;19.056;2023-05-16T14:05:16;5.53;;;4.05;;
50858;SDS011;36826;47.514;19.056;2023-05-16T14:07:42;8.23;;;4.00;;
50858;SDS011;36826;47.514;19.056;2023-05-16T14:10:08;8.40;;;4.60;;
50858;SDS011;36826;47.514;19.056;2023-05-16T14:12:34;6.38;;;3.90;;
50858;SDS011;36826;47.514;19.056;2023-05-16T14:15:04;6.72;;;3.72;;
50858;SDS011;36826;47.514;19.056;2023-05-16T14:17:30;6.22;;;3.70;;
50858;SDS011;36826;47.514;19.056;2023-05-16T14:19:56;6.10;;;3.63;;
50858;SDS011;36826;47.514;19.056;2023-05-16T14:22:22;6.13;;;4.10;;
50858;SDS011;36826;47.514;19.056;2023-05-16T14:24:47;7.80;;;4.13;;
50858;SDS011;36826;47.514;19.056;2023-05-16T14:27:13;9.75;;;3.90;;
50858;SDS011;36826;47.514;19.056;2023-05-16T14:29:40;6.25;;;4.20;;
50858;SDS011;36826;47.514;19.056;2023-05-16T14:32:05;8.02;;;4.15;;
50858;SDS011;36826;47.514;19.056;2023-05-16T14:34:32;7.07;;;4.18;;
50858;SDS011;36826;47.514;19.056;2023-05-16T14:36:57;8.60;;;3.83;;
50858;SDS011;36826;47.514;19.056;2023-05-16T14:39:23;7.75;;;4.07;;
50858;SDS011;36826;47.514;19.056;2023-05-16T14:41:48;7.50;;;3.83;;
50858;SDS011;36826;47.514;19.056;2023-05-16T14:44:14;10.40;;;4.25;;
50858;SDS011;36826;47.514;19.056;2023-05-16T14:46:40;8.13;;;4.07;;
50858;SDS011;36826;47.514;19.056;2023-05-16T14:49:05;8.95;;;5.32;;
50858;SDS011;36826;47.514;19.056;2023-05-16T14:51:32;10.15;;;5.75;;
50858;SDS011;36826;47.514;19.056;2023-05-16T14:53:57;7.82;;;5.93;;
50858;SDS011;36826;47.514;19.056;2023-05-16T14:56:26;12.10;;;6.70;;
50858;SDS011;36826;47.514;19.056;2023-05-16T14:58:52;11.15;;;5.72;;
50858;SDS011;36826;47.514;19.056;2023-05-16T15:01:18;9.85;;;6.22;;